sensor_id;sensor_type;location;lat;lon;timestamp;temperature;humidity
43894;DHT22;29556;50.846;4.442;2022-07-06T06:07:11;16.70;80.00
43894;DHT22;29556;50.846;4.442;2022-07-06T06:21:27;17.30;79.50
43894;DHT22;29556;50.846;4.442;2022-07-06T06:23:53;17.40;79.90
43894;DHT22;29556;50.846;4.442;2022-07-06T06:26:20;17.50;79.50
43894;DHT22;29556;50.846;4.442;2022-07-06T06:40:35;18.00;80.00
43894;DHT22;29556;50.846;4.442;2022-07-06T08:32:43;19.60;61.80
43894;DHT22;29556;50.846;4.442;2022-07-06T08:35:10;19.70;64.50
43894;DHT22;29556;50.846;4.442;2022-07-06T08:37:36;19.80;65.20
43894;DHT22;29556;50.846;4.442;2022-07-06T08:40:03;19.90;65.80
43894;DHT22;29556;50.846;4.442;2022-07-06T08:42:33;19.90;62.50
43894;DHT22;29556;50.846;4.442;2022-07-06T08:45:01;19.90;63.40
43894;DHT22;29556;50.846;4.442;2022-07-06T08:47:28;19.90;62.00
43894;DHT22;29556;50.846;4.442;2022-07-06T08:49:55;20.10;65.10
43894;DHT22;29556;50.846;4.442;2022-07-06T08:52:23;20.20;63.40
43894;DHT22;29556;50.846;4.442;2022-07-06T08:54:49;20.40;64.20
43894;DHT22;29556;50.846;4.442;2022-07-06T08:57:15;20.40;61.20
43894;DHT22;29556;50.846;4.442;2022-07-06T08:59:42;20.60;63.20
43894;DHT22;29556;50.846;4.442;2022-07-06T09:02:09;20.60;63.20
43894;DHT22;29556;50.846;4.442;2022-07-06T09:04:36;20.80;64.10
43894;DHT22;29556;50.846;4.442;2022-07-06T09:07:03;20.90;65.30
43894;DHT22;29556;50.846;4.442;2022-07-06T09:09:30;21.00;64.80
43894;DHT22;29556;50.846;4.442;2022-07-06T09:11:59;21.10;66.20
43894;DHT22;29556;50.846;4.442;2022-07-06T09:14:24;21.20;66.80
43894;DHT22;29556;50.846;4.442;2022-07-06T09:17:05;21.40;67.50
43894;DHT22;29556;50.846;4.442;2022-07-06T09:19:33;21.50;65.00
43894;DHT22;29556;50.846;4.442;2022-07-06T09:22:02;21.50;64.80
43894;DHT22;29556;50.846;4.442;2022-07-06T09:24:31;21.30;57.00
43894;DHT22;29556;50.846;4.442;2022-07-06T09:27:18;21.30;59.90
43894;DHT22;29556;50.846;4.442;2022-07-06T09:29:48;21.40;61.70
43894;DHT22;29556;50.846;4.442;2022-07-06T09:32:19;21.50;62.10
43894;DHT22;29556;50.846;4.442;2022-07-06T09:34:46;21.70;63.90
43894;DHT22;29556;50.846;4.442;2022-07-06T09:37:13;21.70;63.20
43894;DHT22;29556;50.846;4.442;2022-07-06T09:40:00;21.80;62.00
43894;DHT22;29556;50.846;4.442;2022-07-06T09:42:26;22.00;61.80
43894;DHT22;29556;50.846;4.442;2022-07-06T09:44:53;22.00;61.50
43894;DHT22;29556;50.846;4.442;2022-07-06T09:47:20;22.20;61.20
43894;DHT22;29556;50.846;4.442;2022-07-06T09:49:46;22.10;56.30
43894;DHT22;29556;50.846;4.442;2022-07-06T09:52:15;22.20;59.30
43894;DHT22;29556;50.846;4.442;2022-07-06T09:54:41;22.20;59.60
43894;DHT22;29556;50.846;4.442;2022-07-06T09:57:08;22.30;59.40
43894;DHT22;29556;50.846;4.442;2022-07-06T09:59:35;22.40;58.50
43894;DHT22;29556;50.846;4.442;2022-07-06T10:02:03;22.40;57.50
43894;DHT22;29556;50.846;4.442;2022-07-06T10:04:32;22.50;58.90
43894;DHT22;29556;50.846;4.442;2022-07-06T10:07:01;22.60;61.50
43894;DHT22;29556;50.846;4.442;2022-07-06T10:09:28;22.70;60.90
43894;DHT22;29556;50.846;4.442;2022-07-06T10:11:58;22.40;54.90
43894;DHT22;29556;50.846;4.442;2022-07-06T10:14:30;22.30;57.80
43894;DHT22;29556;50.846;4.442;2022-07-06T10:17:00;22.50;58.00
43894;DHT22;29556;50.846;4.442;2022-07-06T10:19:35;22.60;57.40
43894;DHT22;29556;50.846;4.442;2022-07-06T10:22:04;22.70;59.70
43894;DHT22;29556;50.846;4.442;2022-07-06T10:24:31;22.70;58.40
43894;DHT22;29556;50.846;4.442;2022-07-06T10:27:07;22.80;58.70
43894;DHT22;29556;50.846;4.442;2022-07-06T10:29:38;22.90;58.20
43894;DHT22;29556;50.846;4.442;2022-07-06T10:32:05;23.20;60.30
43894;DHT22;29556;50.846;4.442;2022-07-06T10:34:31;23.30;61.90
43894;DHT22;29556;50.846;4.442;2022-07-06T10:36:58;23.20;55.80
43894;DHT22;29556;50.846;4.442;2022-07-06T10:39:35;23.30;59.20
43894;DHT22;29556;50.846;4.442;2022-07-06T10:42:50;23.50;59.60
43894;DHT22;29556;50.846;4.442;2022-07-06T10:50:49;23.00;55.90
43894;DHT22;29556;50.846;4.442;2022-07-06T10:53:31;23.10;58.40
43894;DHT22;29556;50.846;4.442;2022-07-06T10:56:04;23.20;59.10
43894;DHT22;29556;50.846;4.442;2022-07-06T10:58:48;23.30;58.00
43894;DHT22;29556;50.846;4.442;2022-07-06T11:01:18;23.30;58.10
43894;DHT22;29556;50.846;4.442;2022-07-06T11:04:11;23.30;59.20
43894;DHT22;29556;50.846;4.442;2022-07-06T11:06:38;23.40;58.90
43894;DHT22;29556;50.846;4.442;2022-07-06T11:09:08;23.50;55.40
43894;DHT22;29556;50.846;4.442;2022-07-06T11:14:18;23.40;54.70
43894;DHT22;29556;50.846;4.442;2022-07-06T11:19:26;23.50;57.30
43894;DHT22;29556;50.846;4.442;2022-07-06T11:21:56;23.70;58.40
43894;DHT22;29556;50.846;4.442;2022-07-06T11:24:29;23.70;55.60
43894;DHT22;29556;50.846;4.442;2022-07-06T11:26:57;23.80;53.90
43894;DHT22;29556;50.846;4.442;2022-07-06T11:29:25;23.70;55.00
43894;DHT22;29556;50.846;4.442;2022-07-06T11:31:57;23.80;56.00
43894;DHT22;29556;50.846;4.442;2022-07-06T11:34:48;23.80;57.80
43894;DHT22;29556;50.846;4.442;2022-07-06T11:37:18;23.70;56.90
43894;DHT22;29556;50.846;4.442;2022-07-06T11:39:45;23.80;57.90
43894;DHT22;29556;50.846;4.442;2022-07-06T11:42:22;23.90;59.40
43894;DHT22;29556;50.846;4.442;2022-07-06T11:44:55;24.00;61.30
43894;DHT22;29556;50.846;4.442;2022-07-06T11:47:37;24.10;60.80
43894;DHT22;29556;50.846;4.442;2022-07-06T11:50:07;24.20;60.30
43894;DHT22;29556;50.846;4.442;2022-07-06T11:52:40;24.20;57.70
43894;DHT22;29556;50.846;4.442;2022-07-06T11:55:15;24.30;58.90
43894;DHT22;29556;50.846;4.442;2022-07-06T11:57:49;24.30;58.70
43894;DHT22;29556;50.846;4.442;2022-07-06T12:00:20;24.30;58.00
43894;DHT22;29556;50.846;4.442;2022-07-06T12:03:01;24.50;59.40
43894;DHT22;29556;50.846;4.442;2022-07-06T12:05:31;24.60;59.00
43894;DHT22;29556;50.846;4.442;2022-07-06T12:08:06;24.30;51.40
43894;DHT22;29556;50.846;4.442;2022-07-06T12:10:32;24.20;54.90
43894;DHT22;29556;50.846;4.442;2022-07-06T12:13:04;24.10;50.60
43894;DHT22;29556;50.846;4.442;2022-07-06T12:15:30;24.10;55.30
43894;DHT22;29556;50.846;4.442;2022-07-06T12:17:56;23.90;51.60
43894;DHT22;29556;50.846;4.442;2022-07-06T12:20:21;23.60;50.00
43894;DHT22;29556;50.846;4.442;2022-07-06T12:22:47;23.60;52.20
43894;DHT22;29556;50.846;4.442;2022-07-06T12:25:42;23.50;51.80
43894;DHT22;29556;50.846;4.442;2022-07-06T12:28:22;23.70;54.30
43894;DHT22;29556;50.846;4.442;2022-07-06T12:30:48;23.90;52.60
43894;DHT22;29556;50.846;4.442;2022-07-06T12:33:14;23.70;49.60
43894;DHT22;29556;50.846;4.442;2022-07-06T12:35:41;23.70;50.60
43894;DHT22;29556;50.846;4.442;2022-07-06T12:38:08;23.70;52.60
43894;DHT22;29556;50.846;4.442;2022-07-06T12:40:36;23.60;52.80
43894;DHT22;29556;50.846;4.442;2022-07-06T12:43:03;23.60;53.70
43894;DHT22;29556;50.846;4.442;2022-07-06T12:45:29;23.50;53.80
43894;DHT22;29556;50.846;4.442;2022-07-06T12:48:04;23.40;52.20
43894;DHT22;29556;50.846;4.442;2022-07-06T12:50:32;23.40;53.90
43894;DHT22;29556;50.846;4.442;2022-07-06T12:52:59;23.40;53.80
43894;DHT22;29556;50.846;4.442;2022-07-06T12:55:28;23.50;54.40
43894;DHT22;29556;50.846;4.442;2022-07-06T12:57:56;23.60;56.10
43894;DHT22;29556;50.846;4.442;2022-07-06T13:00:23;23.50;52.00
43894;DHT22;29556;50.846;4.442;2022-07-06T13:03:04;23.30;51.20
43894;DHT22;29556;50.846;4.442;2022-07-06T13:05:29;23.50;54.70
43894;DHT22;29556;50.846;4.442;2022-07-06T13:11:36;23.40;56.30
43894;DHT22;29556;50.846;4.442;2022-07-06T13:14:30;23.40;56.50
43894;DHT22;29556;50.846;4.442;2022-07-06T13:17:00;23.40;54.30
43894;DHT22;29556;50.846;4.442;2022-07-06T13:19:32;23.50;56.50
43894;DHT22;29556;50.846;4.442;2022-07-06T13:21:59;23.60;58.70
43894;DHT22;29556;50.846;4.442;2022-07-06T13:24:26;23.80;58.30
43894;DHT22;29556;50.846;4.442;2022-07-06T13:26:54;23.90;57.50
43894;DHT22;29556;50.846;4.442;2022-07-06T13:29:20;23.90;55.30
43894;DHT22;29556;50.846;4.442;2022-07-06T13:31:45;23.90;54.90
43894;DHT22;29556;50.846;4.442;2022-07-06T13:34:12;23.70;53.80
43894;DHT22;29556;50.846;4.442;2022-07-06T13:36:39;23.80;54.80
43894;DHT22;29556;50.846;4.442;2022-07-06T13:39:06;24.10;56.60
43894;DHT22;29556;50.846;4.442;2022-07-06T13:41:42;24.20;53.40
43894;DHT22;29556;50.846;4.442;2022-07-06T13:44:10;24.30;57.80
43894;DHT22;29556;50.846;4.442;2022-07-06T13:46:39;24.50;55.50
43894;DHT22;29556;50.846;4.442;2022-07-06T13:49:06;24.60;56.90
43894;DHT22;29556;50.846;4.442;2022-07-06T13:51:34;24.90;53.40
43894;DHT22;29556;50.846;4.442;2022-07-06T13:54:00;24.90;54.40
43894;DHT22;29556;50.846;4.442;2022-07-06T13:56:27;24.90;52.90
43894;DHT22;29556;50.846;4.442;2022-07-06T13:58:54;24.80;52.60
43894;DHT22;29556;50.846;4.442;2022-07-06T14:01:24;24.80;54.40
43894;DHT22;29556;50.846;4.442;2022-07-06T14:03:56;24.80;54.80
43894;DHT22;29556;50.846;4.442;2022-07-06T14:06:25;24.80;54.70
43894;DHT22;29556;50.846;4.442;2022-07-06T14:09:20;24.70;52.50
43894;DHT22;29556;50.846;4.442;2022-07-06T14:11:50;24.90;55.40
43894;DHT22;29556;50.846;4.442;2022-07-06T14:14:23;24.60;52.10
43894;DHT22;29556;50.846;4.442;2022-07-06T14:17:16;24.60;52.40
43894;DHT22;29556;50.846;4.442;2022-07-06T14:19:49;24.60;52.90
43894;DHT22;29556;50.846;4.442;2022-07-06T14:22:15;24.60;50.70
43894;DHT22;29556;50.846;4.442;2022-07-06T14:24:40;24.60;51.90
43894;DHT22;29556;50.846;4.442;2022-07-06T14:27:09;24.70;53.90
43894;DHT22;29556;50.846;4.442;2022-07-06T14:29:35;24.80;53.00
43894;DHT22;29556;50.846;4.442;2022-07-06T14:32:00;24.80;52.40
43894;DHT22;29556;50.846;4.442;2022-07-06T14:34:26;24.80;52.70
43894;DHT22;29556;50.846;4.442;2022-07-06T14:36:55;24.70;52.70
43894;DHT22;29556;50.846;4.442;2022-07-06T14:39:22;25.00;53.70
43894;DHT22;29556;50.846;4.442;2022-07-06T14:41:49;25.20;56.60
43894;DHT22;29556;50.846;4.442;2022-07-06T14:44:33;25.30;55.50
43894;DHT22;29556;50.846;4.442;2022-07-06T14:47:10;25.30;50.30
43894;DHT22;29556;50.846;4.442;2022-07-06T14:49:37;25.20;54.40
43894;DHT22;29556;50.846;4.442;2022-07-06T14:52:04;25.20;52.60
43894;DHT22;29556;50.846;4.442;2022-07-06T14:54:31;25.00;48.80
43894;DHT22;29556;50.846;4.442;2022-07-06T14:56:57;25.00;51.20
43894;DHT22;29556;50.846;4.442;2022-07-06T14:59:24;25.00;52.20
43894;DHT22;29556;50.846;4.442;2022-07-06T15:01:52;25.00;53.20
43894;DHT22;29556;50.846;4.442;2022-07-06T15:04:21;25.00;52.70
43894;DHT22;29556;50.846;4.442;2022-07-06T15:06:50;25.20;52.10
43894;DHT22;29556;50.846;4.442;2022-07-06T15:09:22;25.20;51.00
43894;DHT22;29556;50.846;4.442;2022-07-06T15:11:48;25.00;49.50
43894;DHT22;29556;50.846;4.442;2022-07-06T15:14:14;25.10;52.00
43894;DHT22;29556;50.846;4.442;2022-07-06T15:16:48;25.10;51.00
43894;DHT22;29556;50.846;4.442;2022-07-06T15:19:14;24.90;48.90
43894;DHT22;29556;50.846;4.442;2022-07-06T15:21:56;24.90;50.70
43894;DHT22;29556;50.846;4.442;2022-07-06T15:24:39;24.70;50.20
43894;DHT22;29556;50.846;4.442;2022-07-06T15:27:06;24.80;51.40
43894;DHT22;29556;50.846;4.442;2022-07-06T15:29:34;25.00;52.50
43894;DHT22;29556;50.846;4.442;2022-07-06T15:32:00;24.90;50.40
43894;DHT22;29556;50.846;4.442;2022-07-06T15:34:27;24.90;51.70
43894;DHT22;29556;50.846;4.442;2022-07-06T15:36:53;24.90;50.00
43894;DHT22;29556;50.846;4.442;2022-07-06T15:39:21;24.90;52.00
43894;DHT22;29556;50.846;4.442;2022-07-06T15:41:46;24.90;50.90
43894;DHT22;29556;50.846;4.442;2022-07-06T15:44:12;24.90;50.90
43894;DHT22;29556;50.846;4.442;2022-07-06T15:46:39;24.70;49.00
43894;DHT22;29556;50.846;4.442;2022-07-06T15:49:15;24.80;52.70
43894;DHT22;29556;50.846;4.442;2022-07-06T15:51:43;24.90;54.30
43894;DHT22;29556;50.846;4.442;2022-07-06T15:54:11;24.80;49.80
43894;DHT22;29556;50.846;4.442;2022-07-06T15:56:43;24.70;50.60
43894;DHT22;29556;50.846;4.442;2022-07-06T15:59:13;24.60;49.20
43894;DHT22;29556;50.846;4.442;2022-07-06T16:01:40;24.70;52.00
43894;DHT22;29556;50.846;4.442;2022-07-06T16:04:07;24.90;53.00
43894;DHT22;29556;50.846;4.442;2022-07-06T16:06:36;24.80;53.40
43894;DHT22;29556;50.846;4.442;2022-07-06T16:09:04;25.00;54.40
43894;DHT22;29556;50.846;4.442;2022-07-06T16:11:34;24.90;51.20
43894;DHT22;29556;50.846;4.442;2022-07-06T16:14:11;24.50;49.10
43894;DHT22;29556;50.846;4.442;2022-07-06T16:16:43;24.40;50.50
43894;DHT22;29556;50.846;4.442;2022-07-06T16:19:12;24.40;50.40
43894;DHT22;29556;50.846;4.442;2022-07-06T16:21:44;24.30;50.80
43894;DHT22;29556;50.846;4.442;2022-07-06T16:24:14;24.40;51.50
43894;DHT22;29556;50.846;4.442;2022-07-06T16:26:42;24.50;52.50
43894;DHT22;29556;50.846;4.442;2022-07-06T16:29:13;24.60;52.20
43894;DHT22;29556;50.846;4.442;2022-07-06T16:31:40;24.60;52.30
43894;DHT22;29556;50.846;4.442;2022-07-06T16:34:06;24.50;50.80
43894;DHT22;29556;50.846;4.442;2022-07-06T16:36:31;24.50;51.80
43894;DHT22;29556;50.846;4.442;2022-07-06T16:39:00;24.60;51.80
43894;DHT22;29556;50.846;4.442;2022-07-06T16:41:37;24.50;50.80
43894;DHT22;29556;50.846;4.442;2022-07-06T16:44:15;24.50;52.60
43894;DHT22;29556;50.846;4.442;2022-07-06T16:46:44;24.40;51.30
43894;DHT22;29556;50.846;4.442;2022-07-06T16:49:12;24.40;51.20
43894;DHT22;29556;50.846;4.442;2022-07-06T16:51:47;24.50;52.60
43894;DHT22;29556;50.846;4.442;2022-07-06T16:54:19;24.50;51.80
43894;DHT22;29556;50.846;4.442;2022-07-06T16:56:48;24.40;49.70
43894;DHT22;29556;50.846;4.442;2022-07-06T16:59:15;24.20;53.30
43894;DHT22;29556;50.846;4.442;2022-07-06T17:01:41;24.30;52.20
43894;DHT22;29556;50.846;4.442;2022-07-06T17:04:08;24.20;54.10
43894;DHT22;29556;50.846;4.442;2022-07-06T17:06:39;24.20;52.20
43894;DHT22;29556;50.846;4.442;2022-07-06T17:09:06;24.20;52.30
43894;DHT22;29556;50.846;4.442;2022-07-06T17:11:32;24.10;52.80
43894;DHT22;29556;50.846;4.442;2022-07-06T17:13:58;24.20;52.60
43894;DHT22;29556;50.846;4.442;2022-07-06T17:16:24;24.10;53.20
43894;DHT22;29556;50.846;4.442;2022-07-06T17:18:52;23.90;51.90
43894;DHT22;29556;50.846;4.442;2022-07-06T17:21:20;24.10;54.70
43894;DHT22;29556;50.846;4.442;2022-07-06T17:23:46;24.00;52.50
43894;DHT22;29556;50.846;4.442;2022-07-06T17:26:14;24.00;53.90
43894;DHT22;29556;50.846;4.442;2022-07-06T17:28:41;24.00;53.50
43894;DHT22;29556;50.846;4.442;2022-07-06T17:31:14;24.10;53.90
43894;DHT22;29556;50.846;4.442;2022-07-06T17:33:40;24.10;53.70
43894;DHT22;29556;50.846;4.442;2022-07-06T17:36:08;24.10;54.30
43894;DHT22;29556;50.846;4.442;2022-07-06T17:38:34;24.20;53.50
43894;DHT22;29556;50.846;4.442;2022-07-06T17:40:59;24.00;54.40
43894;DHT22;29556;50.846;4.442;2022-07-06T17:43:26;24.00;54.10
43894;DHT22;29556;50.846;4.442;2022-07-06T17:45:52;23.90;55.00
43894;DHT22;29556;50.846;4.442;2022-07-06T17:48:18;23.80;54.30
43894;DHT22;29556;50.846;4.442;2022-07-06T17:50:43;23.80;55.40
43894;DHT22;29556;50.846;4.442;2022-07-06T17:53:10;23.80;56.50
43894;DHT22;29556;50.846;4.442;2022-07-06T17:55:50;23.80;56.30
43894;DHT22;29556;50.846;4.442;2022-07-06T17:58:20;23.70;56.00
43894;DHT22;29556;50.846;4.442;2022-07-06T18:01:13;23.50;55.60
43894;DHT22;29556;50.846;4.442;2022-07-06T18:03:42;23.50;55.30
43894;DHT22;29556;50.846;4.442;2022-07-06T18:06:08;23.40;56.60
43894;DHT22;29556;50.846;4.442;2022-07-06T18:08:40;23.40;55.70
43894;DHT22;29556;50.846;4.442;2022-07-06T18:11:25;23.30;55.30
43894;DHT22;29556;50.846;4.442;2022-07-06T18:13:55;23.20;56.60
43894;DHT22;29556;50.846;4.442;2022-07-06T18:16:28;23.30;58.00
43894;DHT22;29556;50.846;4.442;2022-07-06T18:18:54;23.30;58.50
43894;DHT22;29556;50.846;4.442;2022-07-06T18:21:20;23.10;55.60
43894;DHT22;29556;50.846;4.442;2022-07-06T18:23:54;22.90;55.70
43894;DHT22;29556;50.846;4.442;2022-07-06T18:26:24;23.00;56.70
43894;DHT22;29556;50.846;4.442;2022-07-06T18:28:53;23.10;56.50
43894;DHT22;29556;50.846;4.442;2022-07-06T18:31:47;23.00;57.00
43894;DHT22;29556;50.846;4.442;2022-07-06T18:34:19;23.00;56.40
43894;DHT22;29556;50.846;4.442;2022-07-06T18:36:48;22.80;56.70
43894;DHT22;29556;50.846;4.442;2022-07-06T18:39:17;23.00;59.10
43894;DHT22;29556;50.846;4.442;2022-07-06T18:41:49;22.90;57.60
43894;DHT22;29556;50.846;4.442;2022-07-06T18:44:16;22.60;55.00
43894;DHT22;29556;50.846;4.442;2022-07-06T18:46:46;22.70;56.90
43894;DHT22;29556;50.846;4.442;2022-07-06T18:52:56;22.70;57.50
43894;DHT22;29556;50.846;4.442;2022-07-06T18:55:26;22.60;57.70
43894;DHT22;29556;50.846;4.442;2022-07-06T18:58:39;22.60;56.60
43894;DHT22;29556;50.846;4.442;2022-07-06T19:01:09;22.50;56.60
43894;DHT22;29556;50.846;4.442;2022-07-06T19:03:45;22.40;57.10
43894;DHT22;29556;50.846;4.442;2022-07-06T19:06:15;22.40;54.80
43894;DHT22;29556;50.846;4.442;2022-07-06T19:08:45;22.30;54.50
43894;DHT22;29556;50.846;4.442;2022-07-06T19:11:19;22.30;54.70
43894;DHT22;29556;50.846;4.442;2022-07-06T19:13:51;22.20;56.50
43894;DHT22;29556;50.846;4.442;2022-07-06T19:16:16;22.10;54.30
43894;DHT22;29556;50.846;4.442;2022-07-06T19:18:44;22.10;55.10
43894;DHT22;29556;50.846;4.442;2022-07-06T19:21:19;22.10;55.50
43894;DHT22;29556;50.846;4.442;2022-07-06T19:23:45;22.20;57.40
43894;DHT22;29556;50.846;4.442;2022-07-06T19:26:30;22.20;56.80
43894;DHT22;29556;50.846;4.442;2022-07-06T19:29:04;22.10;56.10
43894;DHT22;29556;50.846;4.442;2022-07-06T19:31:40;22.10;56.10
43894;DHT22;29556;50.846;4.442;2022-07-06T19:35:02;22.00;54.20
43894;DHT22;29556;50.846;4.442;2022-07-06T19:37:36;22.10;56.70
43894;DHT22;29556;50.846;4.442;2022-07-06T19:40:03;22.00;56.80
43894;DHT22;29556;50.846;4.442;2022-07-06T19:42:38;22.00;57.40
43894;DHT22;29556;50.846;4.442;2022-07-06T19:45:08;22.00;57.10
43894;DHT22;29556;50.846;4.442;2022-07-06T19:47:35;21.90;57.20
43894;DHT22;29556;50.846;4.442;2022-07-06T19:50:02;21.90;56.50
43894;DHT22;29556;50.846;4.442;2022-07-06T19:52:31;22.00;58.50
43894;DHT22;29556;50.846;4.442;2022-07-06T19:54:58;21.80;56.30
43894;DHT22;29556;50.846;4.442;2022-07-06T19:57:23;21.90;58.80
43894;DHT22;29556;50.846;4.442;2022-07-06T19:59:51;21.80;57.40
43894;DHT22;29556;50.846;4.442;2022-07-06T20:02:21;21.60;57.80
43894;DHT22;29556;50.846;4.442;2022-07-06T20:07:30;21.60;59.00
43894;DHT22;29556;50.846;4.442;2022-07-06T20:09:59;21.70;59.70
43894;DHT22;29556;50.846;4.442;2022-07-06T20:12:32;21.50;58.90
43894;DHT22;29556;50.846;4.442;2022-07-06T20:14:59;21.40;59.40
43894;DHT22;29556;50.846;4.442;2022-07-06T20:17:29;21.50;59.80
43894;DHT22;29556;50.846;4.442;2022-07-06T20:19:55;21.60;62.00
43894;DHT22;29556;50.846;4.442;2022-07-06T20:22:21;21.50;60.00
43894;DHT22;29556;50.846;4.442;2022-07-06T20:24:47;21.50;62.90
43894;DHT22;29556;50.846;4.442;2022-07-06T20:27:30;21.50;61.30
43894;DHT22;29556;50.846;4.442;2022-07-06T20:29:58;21.60;62.70
43894;DHT22;29556;50.846;4.442;2022-07-06T20:32:24;21.60;62.30
43894;DHT22;29556;50.846;4.442;2022-07-06T20:34:50;21.60;63.00
43894;DHT22;29556;50.846;4.442;2022-07-06T20:37:16;21.60;63.00
43894;DHT22;29556;50.846;4.442;2022-07-06T20:39:42;21.60;63.20
43894;DHT22;29556;50.846;4.442;2022-07-06T20:42:09;21.60;63.20
43894;DHT22;29556;50.846;4.442;2022-07-06T20:44:36;21.60;63.80
43894;DHT22;29556;50.846;4.442;2022-07-06T20:47:05;21.60;62.60
43894;DHT22;29556;50.846;4.442;2022-07-06T20:49:31;21.60;62.90
43894;DHT22;29556;50.846;4.442;2022-07-06T20:51:56;21.50;63.20
43894;DHT22;29556;50.846;4.442;2022-07-06T20:54:25;21.50;63.60
43894;DHT22;29556;50.846;4.442;2022-07-06T20:56:54;21.60;64.10
43894;DHT22;29556;50.846;4.442;2022-07-06T20:59:28;21.50;63.80
43894;DHT22;29556;50.846;4.442;2022-07-06T21:02:04;21.50;63.90
43894;DHT22;29556;50.846;4.442;2022-07-06T21:04:33;21.40;64.40
43894;DHT22;29556;50.846;4.442;2022-07-06T21:07:18;21.40;64.10
43894;DHT22;29556;50.846;4.442;2022-07-06T21:09:50;21.30;64.10
43894;DHT22;29556;50.846;4.442;2022-07-06T21:12:22;21.30;64.00
43894;DHT22;29556;50.846;4.442;2022-07-06T21:15:29;21.20;65.30
43894;DHT22;29556;50.846;4.442;2022-07-06T21:18:25;21.20;64.90
43894;DHT22;29556;50.846;4.442;2022-07-06T21:21:08;21.10;65.00
43894;DHT22;29556;50.846;4.442;2022-07-06T21:32:11;21.30;66.10
43894;DHT22;29556;50.846;4.442;2022-07-06T21:35:43;21.10;65.20
43894;DHT22;29556;50.846;4.442;2022-07-06T21:38:28;21.10;66.10
43894;DHT22;29556;50.846;4.442;2022-07-06T21:41:00;21.10;66.60
43894;DHT22;29556;50.846;4.442;2022-07-06T21:43:26;21.10;66.10
43894;DHT22;29556;50.846;4.442;2022-07-06T21:46:07;21.10;66.40
43894;DHT22;29556;50.846;4.442;2022-07-06T21:48:47;21.00;65.90
43894;DHT22;29556;50.846;4.442;2022-07-06T21:51:31;21.10;66.00
43894;DHT22;29556;50.846;4.442;2022-07-06T21:54:01;21.00;66.10
43894;DHT22;29556;50.846;4.442;2022-07-06T21:56:28;21.00;65.80
43894;DHT22;29556;50.846;4.442;2022-07-06T21:59:01;20.80;66.60
43894;DHT22;29556;50.846;4.442;2022-07-06T22:01:27;20.80;66.60
43894;DHT22;29556;50.846;4.442;2022-07-06T22:03:53;20.90;67.00
43894;DHT22;29556;50.846;4.442;2022-07-06T22:06:18;20.80;66.40
43894;DHT22;29556;50.846;4.442;2022-07-06T22:08:44;20.90;66.40
43894;DHT22;29556;50.846;4.442;2022-07-06T22:11:13;20.90;66.90
43894;DHT22;29556;50.846;4.442;2022-07-06T22:13:40;20.90;67.00
43894;DHT22;29556;50.846;4.442;2022-07-06T22:16:18;20.90;67.10
43894;DHT22;29556;50.846;4.442;2022-07-06T22:18:47;20.90;66.80
43894;DHT22;29556;50.846;4.442;2022-07-06T22:21:14;20.80;67.00
43894;DHT22;29556;50.846;4.442;2022-07-06T22:23:42;20.80;67.40
43894;DHT22;29556;50.846;4.442;2022-07-06T22:26:24;20.80;67.70
43894;DHT22;29556;50.846;4.442;2022-07-06T22:28:53;20.90;67.90
43894;DHT22;29556;50.846;4.442;2022-07-06T22:31:22;20.80;68.00
43894;DHT22;29556;50.846;4.442;2022-07-06T22:33:48;20.70;67.90
43894;DHT22;29556;50.846;4.442;2022-07-06T22:36:17;20.60;68.30
43894;DHT22;29556;50.846;4.442;2022-07-06T22:39:07;20.50;68.30
43894;DHT22;29556;50.846;4.442;2022-07-06T22:41:39;20.50;68.30
43894;DHT22;29556;50.846;4.442;2022-07-06T22:44:05;20.50;68.70
43894;DHT22;29556;50.846;4.442;2022-07-06T22:46:35;20.60;69.40
43894;DHT22;29556;50.846;4.442;2022-07-06T22:49:08;20.50;69.20
43894;DHT22;29556;50.846;4.442;2022-07-06T22:51:35;20.40;69.00
43894;DHT22;29556;50.846;4.442;2022-07-06T22:54:04;20.30;69.20
43894;DHT22;29556;50.846;4.442;2022-07-06T22:56:30;20.40;69.50
43894;DHT22;29556;50.846;4.442;2022-07-06T22:58:56;20.20;69.50
43894;DHT22;29556;50.846;4.442;2022-07-06T23:01:22;20.20;69.90
43894;DHT22;29556;50.846;4.442;2022-07-06T23:03:49;20.20;70.10
43894;DHT22;29556;50.846;4.442;2022-07-06T23:06:19;20.30;70.20
43894;DHT22;29556;50.846;4.442;2022-07-06T23:08:45;20.20;70.00
43894;DHT22;29556;50.846;4.442;2022-07-06T23:11:13;20.30;70.40
43894;DHT22;29556;50.846;4.442;2022-07-06T23:13:41;20.30;70.40
43894;DHT22;29556;50.846;4.442;2022-07-06T23:16:08;20.30;70.80
43894;DHT22;29556;50.846;4.442;2022-07-06T23:18:40;20.30;71.00
43894;DHT22;29556;50.846;4.442;2022-07-06T23:21:08;20.30;71.10
43894;DHT22;29556;50.846;4.442;2022-07-06T23:23:36;20.30;71.20
43894;DHT22;29556;50.846;4.442;2022-07-06T23:26:01;20.30;71.50
43894;DHT22;29556;50.846;4.442;2022-07-06T23:28:29;20.30;71.50
43894;DHT22;29556;50.846;4.442;2022-07-06T23:30:57;20.20;71.20
43894;DHT22;29556;50.846;4.442;2022-07-06T23:33:32;20.20;71.60
43894;DHT22;29556;50.846;4.442;2022-07-06T23:36:13;20.10;71.50
43894;DHT22;29556;50.846;4.442;2022-07-06T23:38:40;20.10;72.10
43894;DHT22;29556;50.846;4.442;2022-07-06T23:44:30;20.00;71.70
43894;DHT22;29556;50.846;4.442;2022-07-06T23:47:03;19.90;72.20
43894;DHT22;29556;50.846;4.442;2022-07-06T23:49:29;20.00;73.00
43894;DHT22;29556;50.846;4.442;2022-07-06T23:51:55;20.10;72.90
43894;DHT22;29556;50.846;4.442;2022-07-06T23:54:28;20.00;72.50
43894;DHT22;29556;50.846;4.442;2022-07-06T23:57:01;20.00;72.60
43894;DHT22;29556;50.846;4.442;2022-07-06T23:59:32;19.90;72.90
